createdAt,value
2017-07-20T00:02:52.431Z,58.8
2017-07-20T00:03:52.666Z,59
2017-07-20T00:04:52.605Z,58.9
2017-07-20T00:05:52.543Z,59
2017-07-20T00:06:52.486Z,59
2017-07-20T00:07:52.418Z,58.61
2017-07-20T00:08:52.356Z,58.9
2017-07-20T00:09:52.294Z,58.7
2017-07-20T00:10:52.230Z,58.9
2017-07-20T00:11:52.169Z,58.8
2017-07-20T00:12:52.108Z,58.7
2017-07-20T00:13:52.048Z,58.7
2017-07-20T00:14:51.679Z,58.7
2017-07-20T00:15:51.620Z,58.61
2017-07-20T00:16:51.867Z,58.61
2017-07-20T00:17:51.802Z,58.7
2017-07-20T00:18:51.759Z,59
2017-07-20T00:19:51.674Z,59
2017-07-20T00:20:51.865Z,58.9
2017-07-20T00:21:51.550Z,58.51
2017-07-20T00:22:51.487Z,58.51
2017-07-20T00:23:51.136Z,58.8
2017-07-20T00:24:51.367Z,58.51
2017-07-20T00:25:51.300Z,58.8
2017-07-20T00:26:51.238Z,58.61
2017-07-20T00:27:51.177Z,58.7
2017-07-20T00:28:51.119Z,58.7
2017-07-20T00:29:51.051Z,58.7
2017-07-20T00:30:50.991Z,58.51
2017-07-20T00:31:50.936Z,58.51
2017-07-20T00:32:50.867Z,58.51
2017-07-20T00:33:50.803Z,59
2017-07-20T00:34:50.742Z,58.7
2017-07-20T00:35:50.683Z,59
2017-07-20T00:36:50.618Z,58.8
2017-07-20T00:37:50.556Z,58.9
2017-07-20T00:38:50.494Z,58.9
2017-07-20T00:39:50.436Z,58.7
2017-07-20T00:40:50.368Z,58.8
2017-07-20T00:41:50.312Z,59
2017-07-20T00:42:50.246Z,59
2017-07-20T00:43:50.185Z,59
2017-07-20T00:44:50.120Z,58.9
2017-07-20T00:45:50.062Z,58.8
2017-07-20T00:46:49.998Z,58.8
2017-07-20T00:47:49.630Z,58.8
2017-07-20T00:48:49.873Z,58.7
2017-07-20T00:49:49.527Z,59
2017-07-20T00:50:49.750Z,58.7
2017-07-20T00:51:49.686Z,58.61
2017-07-20T00:52:49.627Z,58.61
2017-07-20T00:53:49.259Z,58.9
2017-07-20T00:54:49.500Z,58.9
2017-07-20T00:55:49.438Z,59.09
2017-07-20T00:56:49.376Z,58.9
2017-07-20T00:57:49.317Z,59.09
2017-07-20T00:58:49.265Z,59.48
2017-07-20T00:59:49.193Z,59.48
2017-07-20T01:00:49.128Z,59.19
2017-07-20T01:01:49.066Z,59.77
2017-07-20T01:02:49.003Z,59.77
2017-07-20T01:03:48.942Z,59.09
2017-07-20T01:04:48.888Z,59.48
2017-07-20T01:05:48.819Z,59.38
2017-07-20T01:06:48.758Z,59.48
2017-07-20T01:07:48.693Z,59.38
2017-07-20T01:08:48.632Z,59.38
2017-07-20T01:09:48.568Z,59.48
2017-07-20T01:10:48.509Z,59.28
2017-07-20T01:11:48.446Z,59.77
2017-07-20T01:12:48.385Z,59.77
2017-07-20T01:13:48.322Z,59.77
2017-07-20T01:14:48.271Z,59.58
2017-07-20T01:15:48.197Z,59.67
2017-07-20T01:16:48.137Z,59.67
2017-07-20T01:17:48.074Z,59.77
2017-07-20T01:18:48.012Z,59.86
2017-07-20T01:19:47.950Z,59.48
2017-07-20T01:20:47.885Z,60.06
2017-07-20T01:21:47.826Z,59.58
2017-07-20T01:22:47.782Z,59.48
2017-07-20T01:23:47.745Z,59.86
2017-07-20T01:24:47.640Z,60.06
2017-07-20T01:25:47.579Z,59.67
2017-07-20T01:26:47.516Z,59.48
2017-07-20T01:27:47.452Z,59.38
2017-07-20T01:28:47.392Z,60.06
2017-07-20T01:29:47.329Z,60.06
2017-07-20T01:30:47.271Z,60.06
2017-07-20T01:31:47.206Z,59.96
2017-07-20T01:32:47.144Z,60.06
2017-07-20T01:33:46.779Z,59.77
2017-07-20T01:34:48.218Z,59.96
2017-07-20T01:35:46.958Z,60.06
2017-07-20T01:36:46.896Z,59.86
2017-07-20T01:37:46.841Z,60.06
2017-07-20T01:38:46.770Z,59.58
2017-07-20T01:39:46.711Z,59.77
2017-07-20T01:40:46.646Z,59.67
2017-07-20T01:41:46.585Z,59.86
2017-07-20T01:42:46.528Z,60.16
2017-07-20T01:43:46.460Z,59.77
2017-07-20T01:44:46.406Z,59.77
2017-07-20T01:45:46.336Z,60.06
2017-07-20T01:46:46.274Z,59.77
2017-07-20T01:47:46.217Z,60.16
2017-07-20T01:48:46.153Z,59.86
2017-07-20T01:49:46.088Z,60.25
2017-07-20T01:50:46.026Z,60.16
2017-07-20T01:51:46.097Z,60.25
2017-07-20T01:52:45.901Z,60.06
2017-07-20T01:53:45.843Z,59.67
2017-07-20T01:54:45.777Z,60.06
2017-07-20T01:55:45.716Z,59.77
2017-07-20T01:56:45.652Z,59.77
2017-07-20T01:57:45.592Z,60.06
2017-07-20T01:58:45.531Z,59.96
2017-07-20T01:59:45.481Z,59.77
2017-07-20T02:00:45.404Z,59.67
2017-07-20T02:01:45.345Z,59.86
2017-07-20T02:02:45.291Z,59.67
2017-07-20T02:03:45.230Z,59.67
2017-07-20T02:04:44.868Z,59.58
2017-07-20T02:05:45.098Z,59.58
2017-07-20T02:06:45.035Z,60.25
2017-07-20T02:07:44.973Z,59.77
2017-07-20T02:08:44.923Z,59.77
2017-07-20T02:09:44.555Z,59.96
2017-07-20T02:10:44.492Z,60.25
2017-07-20T02:11:44.726Z,60.16
2017-07-20T02:12:44.662Z,60.06
2017-07-20T02:13:44.600Z,59.96
2017-07-20T02:14:44.536Z,60.25
2017-07-20T02:15:44.476Z,60.44
2017-07-20T02:16:44.413Z,59.77
2017-07-20T02:17:44.368Z,59.38
2017-07-20T02:18:44.292Z,59.58
2017-07-20T02:19:44.251Z,59.67
2017-07-20T02:20:44.163Z,59.67
2017-07-20T02:21:44.124Z,59.58
2017-07-20T02:22:44.040Z,59.58
2017-07-20T02:23:43.686Z,59.96
2017-07-20T02:24:43.934Z,59.67
2017-07-20T02:25:43.856Z,60.64
2017-07-20T02:26:43.797Z,60.54
2017-07-20T02:27:43.730Z,60.16
2017-07-20T02:28:43.376Z,60.25
2017-07-20T02:29:43.619Z,59.96
2017-07-20T02:30:43.557Z,59.86
2017-07-20T02:31:43.483Z,60.06
2017-07-20T02:32:43.423Z,59.86
2017-07-20T02:33:43.360Z,59.77
2017-07-20T02:34:43.298Z,59.96
2017-07-20T02:35:43.239Z,60.06
2017-07-20T02:36:43.180Z,60.06
2017-07-20T02:37:43.110Z,59.86
2017-07-20T02:38:43.050Z,60.25
2017-07-20T02:39:42.987Z,60.44
2017-07-20T02:40:42.924Z,60.64
2017-07-20T02:41:42.864Z,60.25
2017-07-20T02:42:42.800Z,60.25
2017-07-20T02:43:42.738Z,60.16
2017-07-20T02:44:42.675Z,59.86
2017-07-20T02:45:42.613Z,60.44
2017-07-20T02:46:42.551Z,60.25
2017-07-20T02:47:42.491Z,60.44
2017-07-20T02:48:42.126Z,60.06
2017-07-20T02:49:42.367Z,60.16
2017-07-20T02:50:42.303Z,60.25
2017-07-20T02:51:42.242Z,59.86
2017-07-20T02:52:42.178Z,60.25
2017-07-20T02:53:42.118Z,60.06
2017-07-20T02:54:42.056Z,60.16
2017-07-20T02:55:42.002Z,60.64
2017-07-20T02:56:41.932Z,60.16
2017-07-20T02:57:41.871Z,60.44
2017-07-20T02:58:41.808Z,60.54
2017-07-20T02:59:41.745Z,60.54
2017-07-20T03:00:41.687Z,60.73
2017-07-20T03:01:41.622Z,60.35
2017-07-20T03:02:41.560Z,60.54
2017-07-20T03:03:41.509Z,60.54
2017-07-20T03:04:41.438Z,60.35
2017-07-20T03:05:41.375Z,61.12
2017-07-20T03:06:41.313Z,61.31
2017-07-20T03:07:41.250Z,63.34
2017-07-20T03:08:41.196Z,62.47
2017-07-20T03:09:40.823Z,63.63
2017-07-20T03:10:41.064Z,63.34
2017-07-20T03:11:40.701Z,64.01
2017-07-20T03:12:40.940Z,64.01
2017-07-20T03:13:40.878Z,64.5
2017-07-20T03:14:40.815Z,65.47
2017-07-20T03:15:40.757Z,64.69
2017-07-20T03:16:40.694Z,63.92
2017-07-20T03:17:40.630Z,64.01
2017-07-20T03:18:40.264Z,65.75
2017-07-20T03:19:40.508Z,64.89
2017-07-20T03:20:40.441Z,65.95
2017-07-20T03:21:40.380Z,65.56
2017-07-20T03:22:40.525Z,65.85
2017-07-20T03:23:40.258Z,66.63
2017-07-20T03:24:40.194Z,67.4
2017-07-20T03:25:40.135Z,68.07
2017-07-20T03:26:40.088Z,69.52
2017-07-20T03:27:40.009Z,67.59
2017-07-20T03:28:39.645Z,67.59
2017-07-20T03:29:39.886Z,67.88
2017-07-20T03:30:39.826Z,67.11
2017-07-20T03:31:39.766Z,66.53
2017-07-20T03:32:39.699Z,68.26
2017-07-20T03:33:39.639Z,69.23
2017-07-20T03:34:39.577Z,70
2017-07-20T03:35:39.515Z,69.42
2017-07-20T03:36:39.454Z,70
2017-07-20T03:37:39.388Z,70.48
2017-07-20T03:38:39.327Z,69.81
2017-07-20T03:39:38.963Z,70.2
2017-07-20T03:40:39.205Z,70.68
2017-07-20T03:41:39.141Z,70.39
2017-07-20T03:42:39.083Z,69.62
2017-07-20T03:43:39.019Z,69.71
2017-07-20T03:44:38.954Z,70.29
2017-07-20T03:45:38.893Z,70.1
2017-07-20T03:46:38.838Z,70.39
2017-07-20T03:47:38.768Z,69.52
2017-07-20T03:48:38.707Z,69.71
2017-07-20T03:49:38.646Z,70.87
2017-07-20T03:50:38.585Z,71.16
2017-07-20T03:51:38.521Z,71.06
2017-07-20T03:52:38.460Z,70.78
2017-07-20T03:53:38.395Z,71.74
2017-07-20T03:54:38.338Z,70.87
2017-07-20T03:55:38.274Z,70.78
2017-07-20T03:56:38.211Z,70.87
2017-07-20T03:57:38.148Z,71.16
2017-07-20T03:58:38.088Z,71.64
2017-07-20T03:59:38.026Z,71.36
2017-07-20T04:00:37.962Z,71.45
2017-07-20T04:01:37.600Z,71.74
2017-07-20T04:02:37.841Z,71.55
2017-07-20T04:03:37.776Z,71.36
2017-07-20T04:04:37.714Z,71.06
2017-07-20T04:05:37.653Z,71.45
2017-07-20T04:06:37.592Z,70.68
2017-07-20T04:07:37.529Z,71.45
2017-07-20T04:08:37.466Z,71.55
2017-07-20T04:09:37.403Z,71.26
2017-07-20T04:10:37.039Z,70.39
2017-07-20T04:11:36.979Z,69.9
2017-07-20T04:12:37.219Z,70
2017-07-20T04:13:37.158Z,69.9
2017-07-20T04:14:37.094Z,70
2017-07-20T04:15:37.034Z,70.1
2017-07-20T04:16:36.971Z,70.2
2017-07-20T04:17:36.913Z,70.1
2017-07-20T04:18:36.847Z,70
2017-07-20T04:19:36.784Z,70
2017-07-20T04:20:36.725Z,70.58
2017-07-20T04:21:36.664Z,69.81
2017-07-20T04:22:36.600Z,70
2017-07-20T04:23:36.535Z,70.1
2017-07-20T04:24:36.473Z,70
2017-07-20T04:25:36.431Z,70.1
2017-07-20T04:26:36.349Z,70.2
2017-07-20T04:27:36.292Z,70.29
2017-07-20T04:28:36.228Z,70.29
2017-07-20T04:29:36.165Z,70.2
2017-07-20T04:30:36.109Z,69.71
2017-07-20T04:31:36.041Z,70
2017-07-20T04:32:35.979Z,70.29
2017-07-20T04:33:35.916Z,69.9
2017-07-20T04:34:35.853Z,69.9
2017-07-20T04:35:35.800Z,70.39
2017-07-20T04:36:35.427Z,69.32
2017-07-20T04:37:35.670Z,68.55
2017-07-20T04:38:35.607Z,67.97
2017-07-20T04:39:35.543Z,68.07
2017-07-20T04:40:35.482Z,67.69
2017-07-20T04:41:35.419Z,67.59
2017-07-20T04:42:35.560Z,67.4
2017-07-20T04:43:35.296Z,67.3
2017-07-20T04:44:35.234Z,67.49
2017-07-20T04:45:35.172Z,66.72
2017-07-20T04:46:35.110Z,67.01
2017-07-20T04:47:35.053Z,66.91
2017-07-20T04:48:34.988Z,67.01
2017-07-20T04:49:34.925Z,67.01
2017-07-20T04:50:34.862Z,66.63
2017-07-20T04:51:34.497Z,66.53
2017-07-20T04:52:34.738Z,66.43
2017-07-20T04:53:34.676Z,66.72
2017-07-20T04:54:34.613Z,66.91
2017-07-20T04:55:34.551Z,66.63
2017-07-20T04:56:34.490Z,66.33
2017-07-20T04:57:34.427Z,66.14
2017-07-20T04:58:34.369Z,66.63
2017-07-20T04:59:34.304Z,66.91
2017-07-20T05:00:34.241Z,66.72
2017-07-20T05:01:34.181Z,66.72
2017-07-20T05:02:34.118Z,66.53
2017-07-20T05:03:34.056Z,66.72
2017-07-20T05:04:33.993Z,66.63
2017-07-20T05:05:33.932Z,66.53
2017-07-20T05:06:33.868Z,66.53
2017-07-20T05:07:33.811Z,66.91
2017-07-20T05:08:33.745Z,66.53
2017-07-20T05:09:33.682Z,66.43
2017-07-20T05:10:33.624Z,66.33
2017-07-20T05:11:33.566Z,66.43
2017-07-20T05:12:33.496Z,66.33
2017-07-20T05:13:33.436Z,66.72
2017-07-20T05:14:33.373Z,66.53
2017-07-20T05:15:33.310Z,66.43
2017-07-20T05:16:33.255Z,66.63
2017-07-20T05:17:33.186Z,66.91
2017-07-20T05:18:33.126Z,67.01
2017-07-20T05:19:32.762Z,67.01
2017-07-20T05:20:32.701Z,66.72
2017-07-20T05:21:32.937Z,67.11
2017-07-20T05:22:32.876Z,67.01
2017-07-20T05:23:32.813Z,67.11
2017-07-20T05:24:32.752Z,67.3
2017-07-20T05:25:32.691Z,67.3
2017-07-20T05:26:32.629Z,67.3
2017-07-20T05:27:32.566Z,67.01
2017-07-20T05:28:32.504Z,67.4
2017-07-20T05:29:32.462Z,67.59
2017-07-20T05:30:32.384Z,67.4
2017-07-20T05:31:32.015Z,67.59
2017-07-20T05:32:32.253Z,67.69
2017-07-20T05:33:32.192Z,67.69
2017-07-20T05:34:32.132Z,67.78
2017-07-20T05:35:32.081Z,67.69
2017-07-20T05:36:31.700Z,67.49
2017-07-20T05:37:31.945Z,67.78
2017-07-20T05:38:31.883Z,67.88
2017-07-20T05:39:31.819Z,68.07
2017-07-20T05:40:31.760Z,67.88
2017-07-20T05:41:31.697Z,67.88
2017-07-20T05:42:31.636Z,67.88
2017-07-20T05:43:31.574Z,67.97
2017-07-20T05:44:31.515Z,68.07
2017-07-20T05:45:31.447Z,68.46
2017-07-20T05:46:31.385Z,68.07
2017-07-20T05:47:31.327Z,68.26
2017-07-20T05:48:31.263Z,68.46
2017-07-20T05:49:31.200Z,68.46
2017-07-20T05:50:31.152Z,68.36
2017-07-20T05:51:31.075Z,68.46
2017-07-20T05:52:31.014Z,68.55
2017-07-20T05:53:30.951Z,68.65
2017-07-20T05:54:30.889Z,68.55
2017-07-20T05:55:30.825Z,68.26
2017-07-20T05:56:30.766Z,68.46
2017-07-20T05:57:30.702Z,68.55
2017-07-20T05:58:30.639Z,68.75
2017-07-20T05:59:30.579Z,68.94
2017-07-20T06:00:30.517Z,68.65
2017-07-20T06:01:30.453Z,68.55
2017-07-20T06:02:30.089Z,69.04
2017-07-20T06:03:30.333Z,68.55
2017-07-20T06:04:30.269Z,69.04
2017-07-20T06:05:30.204Z,69.42
2017-07-20T06:06:30.147Z,69.13
2017-07-20T06:07:30.082Z,69.52
2017-07-20T06:08:30.022Z,69.32
2017-07-20T06:09:29.973Z,69.04
2017-07-20T06:10:29.899Z,69.23
2017-07-20T06:11:29.836Z,69.42
2017-07-20T06:12:29.470Z,69.42
2017-07-20T06:13:29.713Z,69.71
2017-07-20T06:14:29.649Z,69.71
2017-07-20T06:15:29.285Z,69.42
2017-07-20T06:16:29.527Z,69.62
2017-07-20T06:17:29.463Z,69.42
2017-07-20T06:18:29.402Z,69.32
2017-07-20T06:19:29.349Z,69.32
2017-07-20T06:20:28.980Z,69.23
2017-07-20T06:21:29.213Z,69.62
2017-07-20T06:22:29.155Z,69.32
2017-07-20T06:23:29.090Z,69.32
2017-07-20T06:24:29.027Z,69.52
2017-07-20T06:25:28.965Z,69.81
2017-07-20T06:26:28.917Z,69.9
2017-07-20T06:27:28.838Z,69.71
2017-07-20T06:28:28.477Z,69.52
2017-07-20T06:29:28.719Z,69.52
2017-07-20T06:30:28.664Z,69.62
2017-07-20T06:31:28.591Z,69.62
2017-07-20T06:32:28.531Z,69.52
2017-07-20T06:33:28.467Z,69.9
2017-07-20T06:34:28.409Z,69.81
2017-07-20T06:35:28.039Z,69.71
2017-07-20T06:36:28.292Z,70.1
2017-07-20T06:37:27.917Z,70.2
2017-07-20T06:38:27.858Z,70
2017-07-20T06:39:27.796Z,70.58
2017-07-20T06:40:28.068Z,70.2
2017-07-20T06:41:27.974Z,70.1
2017-07-20T06:42:27.911Z,70.58
2017-07-20T06:43:27.848Z,70.29
2017-07-20T06:44:27.536Z,70.2
2017-07-20T06:45:27.418Z,70.68
2017-07-20T06:46:27.357Z,70.2
2017-07-20T06:47:27.600Z,70.2
2017-07-20T06:48:27.231Z,70
2017-07-20T06:49:27.475Z,70.68
2017-07-20T06:50:27.409Z,70.87
2017-07-20T06:51:27.348Z,70.2
2017-07-20T06:52:27.287Z,70.68
2017-07-20T06:53:27.225Z,70.68
2017-07-20T06:54:27.163Z,70.58
2017-07-20T06:55:27.100Z,71.26
2017-07-20T06:56:27.038Z,70.68
2017-07-20T06:57:26.978Z,70.97
2017-07-20T06:58:26.917Z,70.68
2017-07-20T06:59:26.854Z,70.78
2017-07-20T07:00:26.789Z,70.68
2017-07-20T07:01:26.732Z,70.78
2017-07-20T07:02:26.667Z,70.58
2017-07-20T07:03:26.300Z,70.68
2017-07-20T07:04:26.542Z,70.48
2017-07-20T07:05:26.177Z,70.78
2017-07-20T07:06:26.118Z,70.78
2017-07-20T07:07:26.358Z,70.78
2017-07-20T07:08:26.295Z,70.97
2017-07-20T07:09:26.233Z,70.68
2017-07-20T07:10:26.170Z,70.68
2017-07-20T07:11:26.113Z,70.97
2017-07-20T07:12:26.050Z,70.97
2017-07-20T07:13:25.986Z,71.58
2017-07-20T07:14:25.925Z,71.3
2017-07-20T07:15:25.859Z,71.84
2017-07-20T07:16:25.799Z,71.26
2017-07-20T07:17:25.735Z,71.55
2017-07-20T07:18:25.676Z,71.55
2017-07-20T07:19:25.612Z,71.26
2017-07-20T07:20:25.550Z,72.06
2017-07-20T07:21:25.499Z,71.88
2017-07-20T07:22:25.426Z,71.84
2017-07-20T07:23:25.387Z,71.97
2017-07-20T07:24:25.304Z,71.26
2017-07-20T07:25:25.241Z,71.88
2017-07-20T07:26:24.876Z,72.55
2017-07-20T07:27:25.118Z,71.88
2017-07-20T07:28:25.055Z,72.36
2017-07-20T07:29:25.001Z,72.26
2017-07-20T07:30:24.933Z,72.06
2017-07-20T07:31:24.872Z,71.97
2017-07-20T07:32:24.807Z,71.88
2017-07-20T07:33:24.748Z,72.26
2017-07-20T07:34:24.685Z,71.97
2017-07-20T07:35:24.624Z,72.45
2017-07-20T07:36:24.560Z,72.06
2017-07-20T07:37:24.498Z,71.97
2017-07-20T07:38:24.447Z,71.88
2017-07-20T07:39:24.418Z,72.36
2017-07-20T07:40:24.314Z,72.06
2017-07-20T07:41:24.254Z,72.16
2017-07-20T07:42:24.190Z,72.36
2017-07-20T07:43:24.175Z,71.97
2017-07-20T07:44:24.068Z,72.26
2017-07-20T07:45:24.016Z,71.97
2017-07-20T07:46:23.944Z,72.16
2017-07-20T07:47:23.890Z,72.16
2017-07-20T07:48:23.834Z,72.06
2017-07-20T07:49:23.762Z,71.88
2017-07-20T07:50:23.698Z,72.45
2017-07-20T07:51:23.636Z,72.06
2017-07-20T07:52:23.575Z,71.39
2017-07-20T07:53:23.515Z,71.68
2017-07-20T07:54:23.461Z,72.45
2017-07-20T07:55:23.395Z,72.16
2017-07-20T07:56:23.331Z,71.58
2017-07-20T07:57:23.269Z,71.58
2017-07-20T07:58:23.205Z,71.48
2017-07-20T07:59:23.145Z,70.9
2017-07-20T08:00:23.086Z,70.23
2017-07-20T08:01:23.022Z,70.14
2017-07-20T08:02:22.960Z,70.04
2017-07-20T08:03:22.898Z,70.14
2017-07-20T08:04:22.838Z,70.32
2017-07-20T08:05:22.782Z,70.23
2017-07-20T08:06:22.714Z,70.32
2017-07-20T08:07:22.651Z,70.32
2017-07-20T08:08:22.591Z,69.74
2017-07-20T08:09:22.528Z,69.94
2017-07-20T08:10:22.470Z,69.56
2017-07-20T08:11:22.406Z,69.56
2017-07-20T08:12:22.371Z,69.65
2017-07-20T08:13:22.281Z,69.26
2017-07-20T08:14:22.219Z,69.46
2017-07-20T08:15:22.157Z,69.36
2017-07-20T08:16:22.095Z,68.98
2017-07-20T08:17:22.038Z,69.26
2017-07-20T08:18:21.975Z,69.36
2017-07-20T08:19:21.910Z,69.26
2017-07-20T08:20:21.848Z,69.26
2017-07-20T08:21:21.798Z,69.17
2017-07-20T08:22:21.730Z,69.07
2017-07-20T08:23:21.665Z,69.17
2017-07-20T08:24:21.608Z,69.26
2017-07-20T08:25:21.540Z,69.26
2017-07-20T08:26:21.481Z,69.46
2017-07-20T08:27:21.439Z,69.46
2017-07-20T08:28:21.369Z,69.26
2017-07-20T08:29:21.302Z,69.17
2017-07-20T08:30:21.258Z,69.26
2017-07-20T08:31:21.169Z,69.26
2017-07-20T08:32:20.805Z,69.26
2017-07-20T08:33:21.048Z,68.68
2017-07-20T08:34:21.011Z,69.36
2017-07-20T08:35:21.045Z,68.98
2017-07-20T08:36:20.562Z,68.98
2017-07-20T08:37:20.497Z,68.78
2017-07-20T08:38:20.737Z,68.88
2017-07-20T08:39:20.688Z,68.98
2017-07-20T08:40:20.317Z,68.88
2017-07-20T08:41:20.250Z,68.98
2017-07-20T08:42:20.211Z,68.88
2017-07-20T08:43:20.430Z,68.88
2017-07-20T08:44:20.068Z,69.26
2017-07-20T08:45:20.308Z,69.26
2017-07-20T08:46:20.243Z,69.17
2017-07-20T08:47:20.183Z,69.46
2017-07-20T08:48:20.123Z,68.68
2017-07-20T08:49:20.061Z,68.59
2017-07-20T08:50:19.998Z,68.88
2017-07-20T08:51:19.940Z,68.98
2017-07-20T08:52:19.878Z,68.78
2017-07-20T08:53:19.812Z,68.59
2017-07-20T08:54:19.753Z,68.59
2017-07-20T08:55:19.689Z,68.59
2017-07-20T08:56:19.628Z,68.4
2017-07-20T08:57:19.572Z,68.59
2017-07-20T08:58:19.503Z,68.3
2017-07-20T08:59:19.444Z,68.4
2017-07-20T09:00:19.388Z,68.3
2017-07-20T09:01:19.323Z,68.4
2017-07-20T09:02:19.258Z,68.3
2017-07-20T09:03:19.196Z,68.2
2017-07-20T09:04:19.137Z,68.68
2017-07-20T09:05:19.071Z,69.07
2017-07-20T09:06:18.707Z,68.88
2017-07-20T09:07:18.710Z,69.46
2017-07-20T09:08:19.095Z,69.46
2017-07-20T09:09:18.523Z,68.78
2017-07-20T09:10:18.764Z,68.98
2017-07-20T09:11:18.701Z,68.78
2017-07-20T09:12:18.641Z,68.88
2017-07-20T09:13:18.585Z,69.46
2017-07-20T09:14:18.518Z,69.74
2017-07-20T09:15:18.456Z,69.84
2017-07-20T09:16:18.394Z,69.65
2017-07-20T09:17:18.335Z,69.56
2017-07-20T09:18:18.280Z,69.56
2017-07-20T09:19:18.210Z,69.56
2017-07-20T09:20:18.148Z,69.46
2017-07-20T09:21:18.085Z,69.36
2017-07-20T09:22:18.026Z,70.14
2017-07-20T09:23:17.962Z,70.14
2017-07-20T09:24:17.903Z,69.26
2017-07-20T09:25:17.840Z,69.65
2017-07-20T09:26:17.777Z,69.84
2017-07-20T09:27:17.420Z,69.26
2017-07-20T09:28:17.653Z,69.17
2017-07-20T09:29:17.593Z,68.88
2017-07-20T09:30:17.630Z,69.84
2017-07-20T09:31:17.499Z,70.14
2017-07-20T09:32:17.409Z,69.94
2017-07-20T09:33:17.344Z,69.74
2017-07-20T09:34:17.285Z,69.84
2017-07-20T09:35:17.473Z,69.36
2017-07-20T09:36:17.163Z,70.23
2017-07-20T09:37:17.102Z,69.65
2017-07-20T09:38:17.040Z,70.14
2017-07-20T09:39:16.983Z,70.23
2017-07-20T09:40:16.611Z,70.04
2017-07-20T09:41:16.550Z,70.14
2017-07-20T09:42:16.790Z,69.84
2017-07-20T09:43:16.731Z,69.84
2017-07-20T09:44:16.371Z,69.94
2017-07-20T09:45:16.306Z,69.36
2017-07-20T09:46:16.545Z,69.94
2017-07-20T09:47:16.180Z,70.04
2017-07-20T09:48:16.420Z,69.84
2017-07-20T09:49:16.361Z,69.94
2017-07-20T09:50:16.299Z,70.23
2017-07-20T09:51:16.238Z,70.14
2017-07-20T09:52:16.175Z,70.04
2017-07-20T09:53:16.114Z,70.23
2017-07-20T09:54:16.052Z,70.23
2017-07-20T09:55:15.992Z,70.23
2017-07-20T09:56:15.930Z,69.94
2017-07-20T09:57:15.869Z,70.42
2017-07-20T09:58:15.805Z,70.04
2017-07-20T09:59:15.747Z,69.65
2017-07-20T10:00:15.683Z,69.46
2017-07-20T10:01:15.704Z,69.65
2017-07-20T10:02:15.559Z,69.65
2017-07-20T10:03:15.499Z,69.84
2017-07-20T10:04:15.439Z,69.84
2017-07-20T10:05:15.073Z,70.14
2017-07-20T10:06:15.313Z,70.23
2017-07-20T10:07:15.256Z,69.94
2017-07-20T10:08:15.197Z,70.23
2017-07-20T10:09:15.130Z,70.23
2017-07-20T10:10:14.765Z,69.56
2017-07-20T10:11:15.007Z,69.94
2017-07-20T10:12:14.947Z,70.04
2017-07-20T10:13:14.885Z,70.04
2017-07-20T10:14:14.822Z,70.04
2017-07-20T10:15:14.762Z,70.26
2017-07-20T10:16:14.697Z,69.94
2017-07-20T10:17:14.637Z,70.07
2017-07-20T10:18:14.272Z,70.04
2017-07-20T10:19:14.516Z,70.17
2017-07-20T10:20:14.455Z,69.59
2017-07-20T10:21:14.391Z,69.59
2017-07-20T10:22:14.329Z,69.88
2017-07-20T10:23:14.267Z,69.88
2017-07-20T10:24:14.206Z,69.59
2017-07-20T10:25:14.145Z,69.88
2017-07-20T10:26:14.085Z,69.78
2017-07-20T10:27:14.032Z,69.68
2017-07-20T10:28:13.962Z,69.78
2017-07-20T10:29:13.906Z,69.4
2017-07-20T10:30:13.845Z,69.3
2017-07-20T10:31:13.776Z,69.2
2017-07-20T10:32:13.417Z,69.49
2017-07-20T10:33:13.653Z,69.01
2017-07-20T10:34:13.604Z,69.36
2017-07-20T10:35:13.532Z,68.88
2017-07-20T10:36:13.527Z,68.59
2017-07-20T10:37:13.429Z,68.62
2017-07-20T10:38:13.349Z,68.82
2017-07-20T10:39:13.301Z,68.72
2017-07-20T10:40:13.225Z,69.01
2017-07-20T10:41:13.186Z,68.59
2017-07-20T10:42:13.101Z,68.68
2017-07-20T10:43:13.046Z,68.62
2017-07-20T10:44:12.979Z,69.1
2017-07-20T10:45:12.917Z,68.68
2017-07-20T10:46:12.855Z,68.68
2017-07-20T10:47:12.794Z,68.62
2017-07-20T10:48:12.732Z,68.33
2017-07-20T10:49:12.367Z,68.62
2017-07-20T10:50:12.306Z,68.1
2017-07-20T10:51:12.245Z,68.4
2017-07-20T10:52:12.488Z,68.4
2017-07-20T10:53:12.125Z,68.33
2017-07-20T10:54:12.364Z,68.33
2017-07-20T10:55:12.306Z,68.33
2017-07-20T10:56:11.944Z,68.3
2017-07-20T10:57:11.889Z,68.33
2017-07-20T10:58:11.816Z,68.33
2017-07-20T10:59:12.057Z,68.24
2017-07-20T11:00:11.996Z,68.59
2017-07-20T11:01:11.948Z,68.3
2017-07-20T11:02:11.617Z,68.43
2017-07-20T11:03:11.508Z,68.4
2017-07-20T11:04:11.859Z,68.33
2017-07-20T11:05:11.386Z,68.14
2017-07-20T11:06:11.325Z,68.14
2017-07-20T11:07:11.596Z,68.43
2017-07-20T11:08:11.224Z,68.04
2017-07-20T11:09:11.441Z,68.43
2017-07-20T11:10:11.385Z,68.72
2017-07-20T11:11:11.321Z,68.82
2017-07-20T11:12:10.954Z,68.82
2017-07-20T11:13:11.198Z,68.88
2017-07-20T11:14:10.836Z,68.78
2017-07-20T11:15:11.078Z,68.72
2017-07-20T11:16:10.711Z,68.91
2017-07-20T11:17:10.957Z,68.82
2017-07-20T11:18:10.892Z,68.72
2017-07-20T11:19:10.830Z,69.1
2017-07-20T11:20:10.873Z,68.82
2017-07-20T11:21:10.718Z,68.33
2017-07-20T11:22:10.645Z,68.72
2017-07-20T11:23:10.585Z,69.1
2017-07-20T11:24:10.572Z,68.72
2017-07-20T11:25:10.481Z,68.91
2017-07-20T11:26:10.096Z,68.78
2017-07-20T11:27:10.337Z,69.2
2017-07-20T11:28:10.277Z,68.43
2017-07-20T11:29:10.230Z,68.24
2017-07-20T11:30:10.153Z,68.4
2017-07-20T11:31:10.095Z,68.43
2017-07-20T11:32:10.031Z,68.14
2017-07-20T11:33:09.971Z,68.33
2017-07-20T11:34:09.914Z,68.43
2017-07-20T11:35:09.851Z,68.43
2017-07-20T11:36:09.787Z,68.33
2017-07-20T11:37:09.819Z,68.3
2017-07-20T11:38:09.663Z,68.33
2017-07-20T11:39:09.605Z,68.33
2017-07-20T11:40:09.544Z,68.52
2017-07-20T11:41:09.176Z,68.52
2017-07-20T11:42:09.114Z,68.72
2017-07-20T11:43:09.357Z,68.52
2017-07-20T11:44:09.302Z,68.62
2017-07-20T11:45:09.234Z,68.62
2017-07-20T11:46:09.172Z,68.62
2017-07-20T11:47:09.112Z,68.52
2017-07-20T11:48:09.059Z,68.82
2017-07-20T11:49:08.685Z,68.72
2017-07-20T11:50:09.026Z,68.52
2017-07-20T11:51:08.868Z,68.43
2017-07-20T11:52:08.802Z,68.24
2017-07-20T11:53:08.747Z,68.33
2017-07-20T11:54:08.381Z,68.24
2017-07-20T11:55:08.620Z,68.49
2017-07-20T11:56:08.560Z,68.24
2017-07-20T11:57:08.499Z,68.33
2017-07-20T11:58:08.436Z,68.59
2017-07-20T11:59:08.375Z,68.59
2017-07-20T12:00:08.418Z,68.62
2017-07-20T12:01:08.252Z,68.68
2017-07-20T12:02:08.197Z,68.62
2017-07-20T12:03:08.136Z,68.49
2017-07-20T12:04:08.071Z,68.62
2017-07-20T12:05:08.112Z,68.68
2017-07-20T12:06:07.952Z,68.68
2017-07-20T12:07:07.882Z,68.72
2017-07-20T12:08:07.821Z,68.59
2017-07-20T12:09:07.761Z,68.59
2017-07-20T12:10:07.697Z,68.49
2017-07-20T12:11:07.637Z,68.2
2017-07-20T12:12:07.271Z,68.43
2017-07-20T12:13:07.514Z,68.2
2017-07-20T12:14:07.454Z,68.4
2017-07-20T12:15:07.402Z,68.2
2017-07-20T12:16:07.108Z,68.49
2017-07-20T12:17:07.312Z,68.3
2017-07-20T12:18:07.364Z,68.4
2017-07-20T12:19:07.218Z,68.3
2017-07-20T12:20:07.425Z,68.4
2017-07-20T12:21:07.113Z,68.59
2017-07-20T12:22:06.987Z,68.59
2017-07-20T12:23:06.900Z,68.78
2017-07-20T12:24:06.537Z,68.68
2017-07-20T12:25:06.867Z,68.2
2017-07-20T12:26:06.738Z,68.2
2017-07-20T12:27:06.704Z,68.59
2017-07-20T12:28:06.663Z,68.78
2017-07-20T12:29:06.267Z,68.68
2017-07-20T12:30:06.553Z,68.72
2017-07-20T12:31:06.417Z,68.4
2017-07-20T12:32:06.431Z,68.4
2017-07-20T12:33:06.351Z,68.4
2017-07-20T12:34:06.298Z,68.68
2017-07-20T12:35:06.347Z,68.59
2017-07-20T12:36:06.108Z,68.59
2017-07-20T12:37:06.152Z,68.72
2017-07-20T12:38:06.061Z,68.68
2017-07-20T12:39:05.615Z,68.59
2017-07-20T12:40:05.855Z,68.59
2017-07-20T12:41:05.794Z,68.4
2017-07-20T12:42:05.732Z,68.01
2017-07-20T12:43:05.705Z,68.3
2017-07-20T12:44:05.609Z,68.1
2017-07-20T12:45:05.258Z,68.1
2017-07-20T12:46:05.487Z,68.01
2017-07-20T12:47:05.432Z,67.91
2017-07-20T12:48:05.365Z,67.91
2017-07-20T12:49:05.313Z,68.1
2017-07-20T12:50:05.240Z,67.72
2017-07-20T12:51:05.180Z,68.01
2017-07-20T12:52:05.120Z,68.1
2017-07-20T12:53:05.071Z,68.01
2017-07-20T12:54:04.998Z,68.49
2017-07-20T12:55:04.940Z,68.4
2017-07-20T12:56:04.872Z,67.82
2017-07-20T12:57:04.812Z,68.49
2017-07-20T12:58:04.767Z,68.1
2017-07-20T12:59:04.692Z,68.49
2017-07-20T13:00:04.644Z,68.1